sensor_id;sensor_type;location;lat;lon;timestamp;pressure;altitude;pressure_sealevel;temperature;humidity
76819;BME280;65772;51.096;17.006;2022-12-15T00:02:33;98988.33;;;-1.86;68.73
76819;BME280;65772;51.096;17.006;2022-12-15T00:05:21;98990.98;;;-1.90;68.74
76819;BME280;65772;51.096;17.006;2022-12-15T00:08:10;98993.59;;;-1.85;68.72
76819;BME280;65772;51.096;17.006;2022-12-15T00:11:01;98991.67;;;-1.89;69.03
76819;BME280;65772;51.096;17.006;2022-12-15T00:13:49;98996.41;;;-1.91;69.11
76819;BME280;65772;51.096;17.006;2022-12-15T00:16:38;98995.79;;;-1.90;69.02
76819;BME280;65772;51.096;17.006;2022-12-15T00:19:26;98996.41;;;-1.88;69.30
76819;BME280;65772;51.096;17.006;2022-12-15T00:22:14;98998.98;;;-1.87;69.18
76819;BME280;65772;51.096;17.006;2022-12-15T00:25:03;98997.86;;;-1.83;69.17
76819;BME280;65772;51.096;17.006;2022-12-15T00:27:51;99002.54;;;-1.80;69.00
76819;BME280;65772;51.096;17.006;2022-12-15T00:30:39;99006.23;;;-1.80;69.02
76819;BME280;65772;51.096;17.006;2022-12-15T00:33:31;99010.99;;;-1.78;69.08
76819;BME280;65772;51.096;17.006;2022-12-15T00:36:19;99010.48;;;-1.78;68.83
76819;BME280;65772;51.096;17.006;2022-12-15T00:39:07;99011.77;;;-1.79;68.70
76819;BME280;65772;51.096;17.006;2022-12-15T00:41:38;99015.77;;;-1.80;68.94
76819;BME280;65772;51.096;17.006;2022-12-15T00:44:08;99020.61;;;-1.77;68.47
76819;BME280;65772;51.096;17.006;2022-12-15T00:46:45;99022.27;;;-1.75;68.65
76819;BME280;65772;51.096;17.006;2022-12-15T00:49:27;99023.38;;;-1.76;68.70
76819;BME280;65772;51.096;17.006;2022-12-15T00:52:17;99028.99;;;-1.77;68.40
76819;BME280;65772;51.096;17.006;2022-12-15T00:55:06;99028.45;;;-1.77;68.31
76819;BME280;65772;51.096;17.006;2022-12-15T00:57:54;99029.83;;;-1.77;68.28
76819;BME280;65772;51.096;17.006;2022-12-15T01:00:43;99030.58;;;-1.75;68.22
76819;BME280;65772;51.096;17.006;2022-12-15T01:03:31;99030.23;;;-1.76;68.20
76819;BME280;65772;51.096;17.006;2022-12-15T01:06:20;99028.45;;;-1.78;68.14
76819;BME280;65772;51.096;17.006;2022-12-15T01:09:10;99030.22;;;-1.85;68.01
76819;BME280;65772;51.096;17.006;2022-12-15T01:11:59;99034.27;;;-1.90;68.04
76819;BME280;65772;51.096;17.006;2022-12-15T01:14:47;99033.65;;;-1.95;68.18
76819;BME280;65772;51.096;17.006;2022-12-15T01:17:35;99036.64;;;-1.98;67.93
76819;BME280;65772;51.096;17.006;2022-12-15T01:20:23;99039.71;;;-2.03;67.85
76819;BME280;65772;51.096;17.006;2022-12-15T01:22:54;99042.83;;;-2.07;67.78
76819;BME280;65772;51.096;17.006;2022-12-15T01:25:26;99043.98;;;-2.07;67.97
76819;BME280;65772;51.096;17.006;2022-12-15T01:27:57;99050.20;;;-2.12;68.04
76819;BME280;65772;51.096;17.006;2022-12-15T01:30:28;99055.42;;;-2.15;67.98
76819;BME280;65772;51.096;17.006;2022-12-15T01:32:58;99064.61;;;-2.20;68.00
76819;BME280;65772;51.096;17.006;2022-12-15T01:35:29;99065.86;;;-2.22;68.19
76819;BME280;65772;51.096;17.006;2022-12-15T01:38:00;99072.05;;;-2.22;68.27
76819;BME280;65772;51.096;17.006;2022-12-15T01:40:31;99071.73;;;-2.13;68.46
76819;BME280;65772;51.096;17.006;2022-12-15T01:43:19;99069.25;;;-2.09;68.34
76819;BME280;65772;51.096;17.006;2022-12-15T01:46:01;99072.12;;;-2.09;68.58
76819;BME280;65772;51.096;17.006;2022-12-15T01:48:36;99078.45;;;-2.09;68.14
76819;BME280;65772;51.096;17.006;2022-12-15T01:51:11;99082.64;;;-2.06;68.41
76819;BME280;65772;51.096;17.006;2022-12-15T01:53:46;99086.13;;;-2.01;68.23
76819;BME280;65772;51.096;17.006;2022-12-15T01:56:19;99089.52;;;-2.03;68.33
76819;BME280;65772;51.096;17.006;2022-12-15T01:58:53;99094.26;;;-2.05;68.25
76819;BME280;65772;51.096;17.006;2022-12-15T02:01:24;99093.22;;;-2.03;68.22
76819;BME280;65772;51.096;17.006;2022-12-15T02:03:55;99090.85;;;-1.97;68.38
76819;BME280;65772;51.096;17.006;2022-12-15T02:06:26;99086.01;;;-1.92;68.48
76819;BME280;65772;51.096;17.006;2022-12-15T02:08:58;99087.73;;;-1.88;68.38
76819;BME280;65772;51.096;17.006;2022-12-15T02:14:45;99108.81;;;-1.82;68.45
76819;BME280;65772;51.096;17.006;2022-12-15T02:17:26;99115.09;;;-1.80;68.41
76819;BME280;65772;51.096;17.006;2022-12-15T02:20:41;99115.39;;;-1.81;67.95
76819;BME280;65772;51.096;17.006;2022-12-15T02:23:32;99118.90;;;-1.81;67.86
76819;BME280;65772;51.096;17.006;2022-12-15T02:29:21;99116.44;;;-1.80;67.88
76819;BME280;65772;51.096;17.006;2022-12-15T02:32:02;99116.57;;;-1.81;67.80
76819;BME280;65772;51.096;17.006;2022-12-15T02:34:41;99122.30;;;-1.80;67.63
76819;BME280;65772;51.096;17.006;2022-12-15T02:37:15;99126.27;;;-1.78;67.77
76819;BME280;65772;51.096;17.006;2022-12-15T02:39:47;99127.98;;;-1.74;67.85
76819;BME280;65772;51.096;17.006;2022-12-15T02:42:17;99133.16;;;-1.72;67.67
76819;BME280;65772;51.096;17.006;2022-12-15T02:44:50;99140.07;;;-1.71;67.74
76819;BME280;65772;51.096;17.006;2022-12-15T02:47:29;99147.95;;;-1.74;67.80
76819;BME280;65772;51.096;17.006;2022-12-15T02:50:18;99152.51;;;-1.75;67.67
76819;BME280;65772;51.096;17.006;2022-12-15T02:53:01;99149.81;;;-1.78;67.74
76819;BME280;65772;51.096;17.006;2022-12-15T02:55:42;99150.32;;;-1.82;67.80
76819;BME280;65772;51.096;17.006;2022-12-15T02:58:26;99156.17;;;-1.81;67.76
76819;BME280;65772;51.096;17.006;2022-12-15T03:01:04;99157.91;;;-1.80;67.69
76819;BME280;65772;51.096;17.006;2022-12-15T03:03:38;99159.13;;;-1.79;67.85
76819;BME280;65772;51.096;17.006;2022-12-15T03:06:10;99168.38;;;-1.78;67.82
76819;BME280;65772;51.096;17.006;2022-12-15T03:08:41;99176.24;;;-1.78;67.61
76819;BME280;65772;51.096;17.006;2022-12-15T03:11:12;99186.52;;;-1.80;67.50
76819;BME280;65772;51.096;17.006;2022-12-15T03:13:42;99188.64;;;-1.84;67.40
76819;BME280;65772;51.096;17.006;2022-12-15T03:16:12;99185.50;;;-1.89;67.27
76819;BME280;65772;51.096;17.006;2022-12-15T03:18:43;99191.67;;;-1.92;67.67
76819;BME280;65772;51.096;17.006;2022-12-15T03:21:14;99195.35;;;-1.86;67.53
76819;BME280;65772;51.096;17.006;2022-12-15T03:23:45;99194.48;;;-1.84;67.53
76819;BME280;65772;51.096;17.006;2022-12-15T03:26:15;99197.96;;;-1.79;67.45
76819;BME280;65772;51.096;17.006;2022-12-15T03:28:46;99194.38;;;-1.72;67.63
76819;BME280;65772;51.096;17.006;2022-12-15T03:31:17;99198.35;;;-1.64;67.66
76819;BME280;65772;51.096;17.006;2022-12-15T03:33:48;99196.83;;;-1.59;67.21
76819;BME280;65772;51.096;17.006;2022-12-15T03:36:19;99191.95;;;-1.56;67.38
76819;BME280;65772;51.096;17.006;2022-12-15T03:38:51;99193.05;;;-1.55;67.30
76819;BME280;65772;51.096;17.006;2022-12-15T03:41:21;99191.63;;;-1.53;67.50
76819;BME280;65772;51.096;17.006;2022-12-15T03:43:52;99190.41;;;-1.51;67.47
76819;BME280;65772;51.096;17.006;2022-12-15T03:46:22;99186.89;;;-1.54;67.30
76819;BME280;65772;51.096;17.006;2022-12-15T03:48:53;99193.70;;;-1.55;67.31
76819;BME280;65772;51.096;17.006;2022-12-15T03:51:24;99201.28;;;-1.54;67.53
76819;BME280;65772;51.096;17.006;2022-12-15T03:53:54;99204.13;;;-1.57;67.45
76819;BME280;65772;51.096;17.006;2022-12-15T03:56:27;99209.14;;;-1.56;67.19
76819;BME280;65772;51.096;17.006;2022-12-15T03:58:57;99212.80;;;-1.54;67.09
76819;BME280;65772;51.096;17.006;2022-12-15T04:01:29;99214.31;;;-1.51;67.46
76819;BME280;65772;51.096;17.006;2022-12-15T04:04:01;99219.27;;;-1.50;67.12
76819;BME280;65772;51.096;17.006;2022-12-15T04:06:32;99222.30;;;-1.50;67.24
76819;BME280;65772;51.096;17.006;2022-12-15T04:09:03;99221.52;;;-1.52;67.37
76819;BME280;65772;51.096;17.006;2022-12-15T04:11:33;99228.02;;;-1.52;67.08
76819;BME280;65772;51.096;17.006;2022-12-15T04:14:04;99235.19;;;-1.52;67.10
76819;BME280;65772;51.096;17.006;2022-12-15T04:16:34;99232.87;;;-1.52;67.32
76819;BME280;65772;51.096;17.006;2022-12-15T04:19:05;99234.81;;;-1.50;67.16
76819;BME280;65772;51.096;17.006;2022-12-15T04:21:52;99238.29;;;-1.48;67.18
76819;BME280;65772;51.096;17.006;2022-12-15T04:24:22;99240.85;;;-1.44;67.36
76819;BME280;65772;51.096;17.006;2022-12-15T04:27:10;99251.61;;;-1.40;67.13
76819;BME280;65772;51.096;17.006;2022-12-15T04:29:59;99257.13;;;-1.37;67.25
76819;BME280;65772;51.096;17.006;2022-12-15T04:32:47;99258.00;;;-1.36;67.01
76819;BME280;65772;51.096;17.006;2022-12-15T04:35:35;99254.50;;;-1.34;67.12
76819;BME280;65772;51.096;17.006;2022-12-15T04:38:24;99262.88;;;-1.31;67.02
76819;BME280;65772;51.096;17.006;2022-12-15T04:41:19;99267.52;;;-1.29;67.16
76819;BME280;65772;51.096;17.006;2022-12-15T04:44:08;99266.58;;;-1.28;67.12
76819;BME280;65772;51.096;17.006;2022-12-15T04:46:57;99269.73;;;-1.25;67.10
76819;BME280;65772;51.096;17.006;2022-12-15T04:49:45;99270.95;;;-1.24;67.11
76819;BME280;65772;51.096;17.006;2022-12-15T04:52:34;99273.35;;;-1.23;67.16
76819;BME280;65772;51.096;17.006;2022-12-15T04:55:22;99278.97;;;-1.22;67.18
76819;BME280;65772;51.096;17.006;2022-12-15T04:58:10;99278.61;;;-1.19;67.14
76819;BME280;65772;51.096;17.006;2022-12-15T05:00:58;99274.26;;;-1.08;67.01
76819;BME280;65772;51.096;17.006;2022-12-15T05:03:47;99289.33;;;-0.99;66.92
76819;BME280;65772;51.096;17.006;2022-12-15T05:06:35;99289.24;;;-0.91;66.94
76819;BME280;65772;51.096;17.006;2022-12-15T05:09:23;99293.66;;;-0.82;66.85
76819;BME280;65772;51.096;17.006;2022-12-15T05:12:11;99302.81;;;-0.71;66.74
76819;BME280;65772;51.096;17.006;2022-12-15T05:14:59;99303.86;;;-0.64;66.83
76819;BME280;65772;51.096;17.006;2022-12-15T05:17:48;99309.69;;;-0.59;66.73
76819;BME280;65772;51.096;17.006;2022-12-15T05:20:36;99312.46;;;-0.55;66.78
76819;BME280;65772;51.096;17.006;2022-12-15T05:23:24;99314.88;;;-0.54;66.69
76819;BME280;65772;51.096;17.006;2022-12-15T05:26:12;99308.78;;;-0.55;66.61
76819;BME280;65772;51.096;17.006;2022-12-15T05:29:01;99311.77;;;-0.58;66.39
76819;BME280;65772;51.096;17.006;2022-12-15T05:31:49;99310.86;;;-0.62;66.42
76819;BME280;65772;51.096;17.006;2022-12-15T05:34:23;99314.98;;;-0.63;66.38
76819;BME280;65772;51.096;17.006;2022-12-15T05:36:55;99321.93;;;-0.65;66.35
76819;BME280;65772;51.096;17.006;2022-12-15T05:39:26;99322.17;;;-0.67;66.50
76819;BME280;65772;51.096;17.006;2022-12-15T05:41:57;99327.56;;;-0.69;66.44
76819;BME280;65772;51.096;17.006;2022-12-15T05:44:28;99330.04;;;-0.72;66.27
76819;BME280;65772;51.096;17.006;2022-12-15T05:46:59;99341.20;;;-0.74;66.39
76819;BME280;65772;51.096;17.006;2022-12-15T05:49:29;99346.17;;;-0.76;66.22
76819;BME280;65772;51.096;17.006;2022-12-15T05:51:59;99347.37;;;-0.75;66.46
76819;BME280;65772;51.096;17.006;2022-12-15T05:54:30;99348.57;;;-0.74;66.40
76819;BME280;65772;51.096;17.006;2022-12-15T05:57:00;99352.67;;;-0.72;66.48
76819;BME280;65772;51.096;17.006;2022-12-15T05:59:31;99355.42;;;-0.71;66.41
76819;BME280;65772;51.096;17.006;2022-12-15T06:02:01;99354.48;;;-0.70;66.50
76819;BME280;65772;51.096;17.006;2022-12-15T06:04:32;99361.84;;;-0.70;66.46
76819;BME280;65772;51.096;17.006;2022-12-15T06:07:03;99368.33;;;-0.71;66.55
76819;BME280;65772;51.096;17.006;2022-12-15T06:09:33;99369.30;;;-0.71;66.42
76819;BME280;65772;51.096;17.006;2022-12-15T06:12:04;99375.86;;;-0.71;66.47
76819;BME280;65772;51.096;17.006;2022-12-15T06:14:35;99383.45;;;-0.70;66.24
76819;BME280;65772;51.096;17.006;2022-12-15T06:17:05;99390.88;;;-0.69;66.41
76819;BME280;65772;51.096;17.006;2022-12-15T06:19:36;99393.95;;;-0.68;66.45
76819;BME280;65772;51.096;17.006;2022-12-15T06:22:08;99403.53;;;-0.68;66.55
76819;BME280;65772;51.096;17.006;2022-12-15T06:24:39;99410.09;;;-0.67;66.46
76819;BME280;65772;51.096;17.006;2022-12-15T06:27:09;99419.42;;;-0.68;66.49
76819;BME280;65772;51.096;17.006;2022-12-15T06:29:39;99426.13;;;-0.68;66.37
76819;BME280;65772;51.096;17.006;2022-12-15T06:32:10;99432.15;;;-0.68;66.28
76819;BME280;65772;51.096;17.006;2022-12-15T06:34:40;99438.91;;;-0.67;66.16
76819;BME280;65772;51.096;17.006;2022-12-15T06:37:11;99439.21;;;-0.68;66.07
76819;BME280;65772;51.096;17.006;2022-12-15T06:39:41;99442.36;;;-0.69;66.04
76819;BME280;65772;51.096;17.006;2022-12-15T06:42:12;99442.59;;;-0.68;65.93
76819;BME280;65772;51.096;17.006;2022-12-15T06:44:43;99444.95;;;-0.68;65.84
76819;BME280;65772;51.096;17.006;2022-12-15T06:47:13;99444.79;;;-0.70;65.92
76819;BME280;65772;51.096;17.006;2022-12-15T06:49:44;99445.58;;;-0.74;65.93
76819;BME280;65772;51.096;17.006;2022-12-15T06:52:14;99454.33;;;-0.70;65.65
76819;BME280;65772;51.096;17.006;2022-12-15T06:54:45;99462.45;;;-0.63;65.85
76819;BME280;65772;51.096;17.006;2022-12-15T06:57:15;99470.32;;;-0.55;65.75
76819;BME280;65772;51.096;17.006;2022-12-15T06:59:46;99472.28;;;-0.47;65.64
76819;BME280;65772;51.096;17.006;2022-12-15T07:02:17;99470.77;;;-0.39;65.68
76819;BME280;65772;51.096;17.006;2022-12-15T07:04:55;99467.48;;;-0.32;65.76
76819;BME280;65772;51.096;17.006;2022-12-15T07:07:25;99465.86;;;-0.25;65.64
76819;BME280;65772;51.096;17.006;2022-12-15T07:09:56;99471.41;;;-0.30;65.25
76819;BME280;65772;51.096;17.006;2022-12-15T07:12:27;99471.27;;;-0.30;65.02
76819;BME280;65772;51.096;17.006;2022-12-15T07:14:58;99469.84;;;-0.29;65.06
76819;BME280;65772;51.096;17.006;2022-12-15T07:17:28;99479.13;;;-0.28;65.00
76819;BME280;65772;51.096;17.006;2022-12-15T07:19:59;99486.10;;;-0.26;65.11
76819;BME280;65772;51.096;17.006;2022-12-15T07:22:29;99484.46;;;-0.25;65.08
76819;BME280;65772;51.096;17.006;2022-12-15T07:25:00;99486.41;;;-0.29;65.09
76819;BME280;65772;51.096;17.006;2022-12-15T07:27:30;99490.98;;;-0.34;64.78
76819;BME280;65772;51.096;17.006;2022-12-15T07:30:01;99495.63;;;-0.35;64.77
76819;BME280;65772;51.096;17.006;2022-12-15T07:32:32;99501.08;;;-0.37;64.68
76819;BME280;65772;51.096;17.006;2022-12-15T07:35:02;99507.52;;;-0.44;64.65
76819;BME280;65772;51.096;17.006;2022-12-15T07:37:34;99514.89;;;-0.47;64.64
76819;BME280;65772;51.096;17.006;2022-12-15T07:40:07;99514.81;;;-0.45;64.67
76819;BME280;65772;51.096;17.006;2022-12-15T07:42:38;99517.00;;;-0.45;64.60
76819;BME280;65772;51.096;17.006;2022-12-15T07:45:10;99524.26;;;-0.47;64.26
76819;BME280;65772;51.096;17.006;2022-12-15T07:47:42;99530.27;;;-0.45;64.35
76819;BME280;65772;51.096;17.006;2022-12-15T07:50:12;99529.37;;;-0.43;64.44
76819;BME280;65772;51.096;17.006;2022-12-15T07:52:43;99526.09;;;-0.41;64.35
76819;BME280;65772;51.096;17.006;2022-12-15T07:55:13;99526.56;;;-0.43;64.21
76819;BME280;65772;51.096;17.006;2022-12-15T07:57:45;99534.70;;;-0.43;64.12
76819;BME280;65772;51.096;17.006;2022-12-15T08:00:17;99540.17;;;-0.50;63.90
76819;BME280;65772;51.096;17.006;2022-12-15T08:02:48;99545.89;;;-0.52;63.79
76819;BME280;65772;51.096;17.006;2022-12-15T08:05:19;99550.43;;;-0.52;63.87
76819;BME280;65772;51.096;17.006;2022-12-15T08:07:50;99554.70;;;-0.54;63.88
76819;BME280;65772;51.096;17.006;2022-12-15T08:10:20;99558.20;;;-0.54;63.68
76819;BME280;65772;51.096;17.006;2022-12-15T08:12:51;99559.86;;;-0.57;63.51
76819;BME280;65772;51.096;17.006;2022-12-15T08:15:21;99564.81;;;-0.58;63.47
76819;BME280;65772;51.096;17.006;2022-12-15T08:17:52;99565.70;;;-0.55;63.53
76819;BME280;65772;51.096;17.006;2022-12-15T08:20:22;99567.10;;;-0.51;63.33
76819;BME280;65772;51.096;17.006;2022-12-15T08:22:54;99571.32;;;-0.48;63.41
76819;BME280;65772;51.096;17.006;2022-12-15T08:25:24;99568.18;;;-0.44;63.35
76819;BME280;65772;51.096;17.006;2022-12-15T08:27:57;99570.80;;;-0.43;63.42
76819;BME280;65772;51.096;17.006;2022-12-15T08:30:27;99575.91;;;-0.38;63.40
76819;BME280;65772;51.096;17.006;2022-12-15T08:32:58;99579.08;;;-0.33;63.42
76819;BME280;65772;51.096;17.006;2022-12-15T08:35:29;99578.55;;;-0.30;63.34
76819;BME280;65772;51.096;17.006;2022-12-15T08:38:19;99578.34;;;-0.28;63.18
76819;BME280;65772;51.096;17.006;2022-12-15T08:40:49;99584.29;;;-0.30;63.05
76819;BME280;65772;51.096;17.006;2022-12-15T08:43:20;99585.08;;;-0.39;62.88
76819;BME280;65772;51.096;17.006;2022-12-15T08:45:51;99586.46;;;-0.47;62.89
76819;BME280;65772;51.096;17.006;2022-12-15T08:48:21;99587.77;;;-0.45;63.03
76819;BME280;65772;51.096;17.006;2022-12-15T08:50:55;99584.93;;;-0.42;63.10
76819;BME280;65772;51.096;17.006;2022-12-15T08:53:26;99589.64;;;-0.36;63.16
76819;BME280;65772;51.096;17.006;2022-12-15T08:56:04;99590.38;;;-0.29;63.08
76819;BME280;65772;51.096;17.006;2022-12-15T08:58:35;99596.64;;;-0.26;62.84
76819;BME280;65772;51.096;17.006;2022-12-15T09:01:08;99591.98;;;-0.28;62.66
76819;BME280;65772;51.096;17.006;2022-12-15T09:03:39;99590.91;;;-0.28;62.51
76819;BME280;65772;51.096;17.006;2022-12-15T09:06:14;99595.61;;;-0.28;62.25
76819;BME280;65772;51.096;17.006;2022-12-15T09:08:45;99597.20;;;-0.33;62.34
76819;BME280;65772;51.096;17.006;2022-12-15T09:11:18;99602.16;;;-0.31;62.29
76819;BME280;65772;51.096;17.006;2022-12-15T09:13:49;99602.96;;;-0.26;62.33
76819;BME280;65772;51.096;17.006;2022-12-15T09:16:20;99611.95;;;-0.22;62.37
76819;BME280;65772;51.096;17.006;2022-12-15T09:18:53;99619.73;;;-0.18;62.36
76819;BME280;65772;51.096;17.006;2022-12-15T09:21:25;99616.34;;;-0.18;62.08
76819;BME280;65772;51.096;17.006;2022-12-15T09:23:58;99613.42;;;-0.14;61.78
76819;BME280;65772;51.096;17.006;2022-12-15T09:26:32;99615.19;;;-0.10;61.81
76819;BME280;65772;51.096;17.006;2022-12-15T09:29:03;99619.84;;;0.04;61.79
76819;BME280;65772;51.096;17.006;2022-12-15T09:31:37;99626.10;;;0.22;61.92
76819;BME280;65772;51.096;17.006;2022-12-15T09:34:13;99627.85;;;0.38;61.91
76819;BME280;65772;51.096;17.006;2022-12-15T09:36:44;99625.30;;;0.51;61.70
76819;BME280;65772;51.096;17.006;2022-12-15T09:39:15;99627.75;;;0.65;61.49
76819;BME280;65772;51.096;17.006;2022-12-15T09:41:50;99631.48;;;0.75;61.38
76819;BME280;65772;51.096;17.006;2022-12-15T09:44:23;99627.79;;;0.78;60.97
76819;BME280;65772;51.096;17.006;2022-12-15T09:46:56;99625.90;;;0.74;60.53
76819;BME280;65772;51.096;17.006;2022-12-15T09:49:41;99628.14;;;0.63;60.36
76819;BME280;65772;51.096;17.006;2022-12-15T09:52:15;99629.73;;;0.53;60.47
76819;BME280;65772;51.096;17.006;2022-12-15T09:54:46;99628.36;;;0.46;60.56
76819;BME280;65772;51.096;17.006;2022-12-15T09:57:24;99627.00;;;0.40;60.55
76819;BME280;65772;51.096;17.006;2022-12-15T10:00:13;99622.25;;;0.33;60.37
76819;BME280;65772;51.096;17.006;2022-12-15T10:03:08;99621.75;;;0.25;60.32
76819;BME280;65772;51.096;17.006;2022-12-15T10:05:53;99626.37;;;0.24;60.23
76819;BME280;65772;51.096;17.006;2022-12-15T10:08:48;99618.70;;;0.18;60.22
76819;BME280;65772;51.096;17.006;2022-12-15T10:11:35;99620.85;;;0.13;60.04
76819;BME280;65772;51.096;17.006;2022-12-15T10:14:14;99617.92;;;0.14;60.09
76819;BME280;65772;51.096;17.006;2022-12-15T10:16:56;99622.73;;;0.13;60.08
76819;BME280;65772;51.096;17.006;2022-12-15T10:19:37;99622.45;;;0.14;59.95
76819;BME280;65772;51.096;17.006;2022-12-15T10:22:15;99626.27;;;0.22;60.20
76819;BME280;65772;51.096;17.006;2022-12-15T10:24:45;99633.46;;;0.27;60.02
76819;BME280;65772;51.096;17.006;2022-12-15T10:27:57;99636.54;;;0.37;60.14
76819;BME280;65772;51.096;17.006;2022-12-15T10:30:31;99637.73;;;0.43;60.00
76819;BME280;65772;51.096;17.006;2022-12-15T10:33:10;99639.89;;;0.48;59.83
76819;BME280;65772;51.096;17.006;2022-12-15T10:35:46;99647.17;;;0.52;59.81
76819;BME280;65772;51.096;17.006;2022-12-15T10:38:24;99650.33;;;0.51;59.83
76819;BME280;65772;51.096;17.006;2022-12-15T10:40:57;99650.03;;;0.52;59.75
76819;BME280;65772;51.096;17.006;2022-12-15T10:43:31;99650.36;;;0.52;59.66
76819;BME280;65772;51.096;17.006;2022-12-15T10:46:11;99642.64;;;0.49;59.43
76819;BME280;65772;51.096;17.006;2022-12-15T10:48:45;99639.48;;;0.47;59.42
76819;BME280;65772;51.096;17.006;2022-12-15T10:51:41;99637.55;;;0.48;59.46
76819;BME280;65772;51.096;17.006;2022-12-15T10:54:14;99637.09;;;0.46;59.36
76819;BME280;65772;51.096;17.006;2022-12-15T10:56:51;99640.96;;;0.47;59.33
76819;BME280;65772;51.096;17.006;2022-12-15T10:59:24;99641.51;;;0.47;59.33
76819;BME280;65772;51.096;17.006;2022-12-15T11:01:54;99646.06;;;0.45;59.33
76819;BME280;65772;51.096;17.006;2022-12-15T11:04:29;99649.89;;;0.41;59.32
76819;BME280;65772;51.096;17.006;2022-12-15T11:07:02;99653.05;;;0.38;59.30
76819;BME280;65772;51.096;17.006;2022-12-15T11:09:35;99656.45;;;0.33;59.41
76819;BME280;65772;51.096;17.006;2022-12-15T11:12:17;99656.87;;;0.34;59.39
76819;BME280;65772;51.096;17.006;2022-12-15T11:15:39;99661.64;;;0.44;59.49
76819;BME280;65772;51.096;17.006;2022-12-15T11:21:03;99677.31;;;0.65;59.40
76819;BME280;65772;51.096;17.006;2022-12-15T11:23:50;99675.54;;;0.78;59.24
76819;BME280;65772;51.096;17.006;2022-12-15T11:26:31;99675.05;;;0.87;59.21
76819;BME280;65772;51.096;17.006;2022-12-15T11:29:12;99686.13;;;0.99;59.17
76819;BME280;65772;51.096;17.006;2022-12-15T11:31:46;99686.92;;;1.10;58.86
76819;BME280;65772;51.096;17.006;2022-12-15T11:34:20;99683.72;;;1.25;58.78
76819;BME280;65772;51.096;17.006;2022-12-15T11:37:11;99676.80;;;1.40;58.56
76819;BME280;65772;51.096;17.006;2022-12-15T11:39:56;99681.09;;;1.51;58.22
76819;BME280;65772;51.096;17.006;2022-12-15T11:42:44;99682.19;;;1.68;58.05
76819;BME280;65772;51.096;17.006;2022-12-15T11:45:21;99679.34;;;1.84;57.93
76819;BME280;65772;51.096;17.006;2022-12-15T11:47:58;99683.96;;;1.98;57.83
76819;BME280;65772;51.096;17.006;2022-12-15T11:50:34;99685.10;;;2.14;57.73
76819;BME280;65772;51.096;17.006;2022-12-15T11:53:28;99693.09;;;2.28;57.61
76819;BME280;65772;51.096;17.006;2022-12-15T11:56:08;99697.64;;;2.31;57.24
76819;BME280;65772;51.096;17.006;2022-12-15T11:58:53;99702.23;;;2.32;56.65
76819;BME280;65772;51.096;17.006;2022-12-15T12:01:46;99704.30;;;2.37;56.37
76819;BME280;65772;51.096;17.006;2022-12-15T12:04:37;99707.26;;;2.48;56.19
76819;BME280;65772;51.096;17.006;2022-12-15T12:07:17;99705.98;;;2.56;55.92
76819;BME280;65772;51.096;17.006;2022-12-15T12:10:04;99700.08;;;2.66;55.47
76819;BME280;65772;51.096;17.006;2022-12-15T12:12:47;99698.52;;;2.79;55.10
76819;BME280;65772;51.096;17.006;2022-12-15T12:15:26;99701.07;;;2.89;55.16
76819;BME280;65772;51.096;17.006;2022-12-15T12:18:03;99695.56;;;2.98;54.71
76819;BME280;65772;51.096;17.006;2022-12-15T12:20:41;99697.48;;;3.03;54.60
76819;BME280;65772;51.096;17.006;2022-12-15T12:23:18;99703.84;;;3.08;54.47
76819;BME280;65772;51.096;17.006;2022-12-15T12:25:59;99701.63;;;3.14;54.44
76819;BME280;65772;51.096;17.006;2022-12-15T12:28:39;99698.59;;;3.18;54.29
76819;BME280;65772;51.096;17.006;2022-12-15T12:31:20;99691.40;;;3.20;54.04
76819;BME280;65772;51.096;17.006;2022-12-15T12:33:56;99691.27;;;3.20;53.85
76819;BME280;65772;51.096;17.006;2022-12-15T12:36:28;99686.14;;;3.22;53.77
76819;BME280;65772;51.096;17.006;2022-12-15T12:38:59;99679.91;;;3.26;53.65
76819;BME280;65772;51.096;17.006;2022-12-15T12:41:35;99681.94;;;3.22;53.18
76819;BME280;65772;51.096;17.006;2022-12-15T12:44:12;99678.54;;;3.22;53.12
76819;BME280;65772;51.096;17.006;2022-12-15T12:46:48;99681.17;;;3.32;53.29
76819;BME280;65772;51.096;17.006;2022-12-15T12:49:24;99684.70;;;3.46;53.27
76819;BME280;65772;51.096;17.006;2022-12-15T12:51:57;99683.39;;;3.60;53.28
76819;BME280;65772;51.096;17.006;2022-12-15T12:54:45;99683.98;;;3.69;52.90
76819;BME280;65772;51.096;17.006;2022-12-15T12:57:36;99676.44;;;3.78;52.50
76819;BME280;65772;51.096;17.006;2022-12-15T13:00:25;99675.16;;;3.88;52.49
76819;BME280;65772;51.096;17.006;2022-12-15T13:03:16;99667.61;;;4.00;52.46
76819;BME280;65772;51.096;17.006;2022-12-15T13:05:49;99667.77;;;4.11;52.20
76819;BME280;65772;51.096;17.006;2022-12-15T13:14:35;99676.55;;;4.38;51.72
76819;BME280;65772;51.096;17.006;2022-12-15T13:17:16;99678.69;;;4.45;51.37
76819;BME280;65772;51.096;17.006;2022-12-15T13:20:23;99681.30;;;4.51;51.26
76819;BME280;65772;51.096;17.006;2022-12-15T13:23:01;99686.77;;;4.52;50.62
76819;BME280;65772;51.096;17.006;2022-12-15T13:25:47;99682.63;;;4.50;50.65
76819;BME280;65772;51.096;17.006;2022-12-15T13:28:42;99684.86;;;4.55;50.52
76819;BME280;65772;51.096;17.006;2022-12-15T13:31:47;99686.52;;;4.54;50.17
76819;BME280;65772;51.096;17.006;2022-12-15T13:34:24;99689.23;;;4.50;49.79
76819;BME280;65772;51.096;17.006;2022-12-15T13:36:57;99685.46;;;4.41;49.39
76819;BME280;65772;51.096;17.006;2022-12-15T13:42:37;99687.88;;;4.15;49.22
76819;BME280;65772;51.096;17.006;2022-12-15T13:45:44;99694.57;;;4.02;49.68
76819;BME280;65772;51.096;17.006;2022-12-15T13:48:41;99697.95;;;3.95;49.27
76819;BME280;65772;51.096;17.006;2022-12-15T13:51:32;99701.02;;;3.88;49.49
76819;BME280;65772;51.096;17.006;2022-12-15T13:54:18;99703.30;;;3.82;49.70
76819;BME280;65772;51.096;17.006;2022-12-15T13:56:59;99707.31;;;3.78;49.67
76819;BME280;65772;51.096;17.006;2022-12-15T13:59:39;99704.10;;;3.63;49.74
76819;BME280;65772;51.096;17.006;2022-12-15T14:02:28;99708.31;;;3.45;49.48
76819;BME280;65772;51.096;17.006;2022-12-15T14:05:10;99723.27;;;3.30;49.65
76819;BME280;65772;51.096;17.006;2022-12-15T14:07:44;99730.23;;;3.17;49.85